01:45 Rennrad Moetz - Silz - 4x Agip - Haiming - Apfelstr - Agip - Silz - Moetz
Ort Moetz Datum 31.07.2017 11:43:18
Kategorie Rennrad
Distanz 59,23 Kilometer Steigung 165,0 Meter Gefälle -161,0 Meter
Gesamt Zeit 01:45:21 Aktiv 01:45:21 Pause 00:00:00
Durchs. Tempo 33,7 km/h Tempo max. 47,0 km/h Tempo min. 21,4 km/h
Kalorien 0 Durchs. HF 134 BPM HF max. 151 BPM
Wetter 23 °C PartClouds Min/Max: 21,0 °C/25,4 °C; Druck: 1018,1 mbar; Rel. Feuchte: 75,9%; Taupunkt: 18,1 °C; Windgeschwindigkeit: 2,3 km/h; Niederschlag: 0,0mm
Ausrüstung Bontrager - RL Road
Scott - Addict 20
Notiz Moetz - Silz - 4x Agip - Haiming - Apfelstr - Agip - Silz - Moetz ... trocken, warm, leichter Wind in Richtung Telfs - locker gestartet, dann flott ... garmin connect
Splits
Distanz (km) Gesamt Zeit Split Zeit Split Tempo Split Tempo Höhenprofil (m)
1,00 00:01:59 00:01:59 00:02:00 30,1 -10,11
2,00 00:04:05 00:02:06 00:02:06 28,5 2,30
3,00 00:06:03 00:01:57 00:01:58 30,5 2,90
4,00 00:08:05 00:02:01 00:02:02 29,6 0,61
5,00 00:10:12 00:02:07 00:02:07 28,3 9,89
6,00 00:12:09 00:01:57 00:01:57 30,7 2,93
7,00 00:14:05 00:01:55 00:01:55 31,2 -1,49
8,00 00:16:01 00:01:56 00:01:56 30,9 3,83
9,00 00:17:57 00:01:55 00:01:56 31,0 0,89
10,00 00:20:01 00:02:03 00:02:03 29,2 9,62
11,00 00:22:02 00:02:01 00:02:02 29,6 7,57
12,00 00:23:38 00:01:35 00:01:35 37,8 -6,85
13,00 00:25:11 00:01:33 00:01:33 38,7 -1,49
14,00 00:26:47 00:01:36 00:01:36 37,4 -5,88
15,00 00:28:19 00:01:32 00:01:32 38,9 -5,90
16,00 00:29:53 00:01:33 00:01:33 38,6 -9,13
17,00 00:31:41 00:01:48 00:01:49 33,1 -4,60
18,00 00:33:37 00:01:56 00:01:56 31,0 4,99
19,00 00:35:31 00:01:53 00:01:53 31,8 7,90
20,00 00:37:23 00:01:52 00:01:52 32,1 -1,60
21,00 00:39:19 00:01:55 00:01:56 31,1 3,44
22,00 00:41:18 00:01:58 00:01:59 30,3 0,90
23,00 00:43:05 00:01:47 00:01:47 33,6 7,66
24,00 00:45:11 00:02:06 00:02:07 28,4 11,07
25,00 00:47:01 00:01:49 00:01:50 32,8 -5,37
26,00 00:48:28 00:01:26 00:01:26 41,6 -3,09
27,00 00:49:54 00:01:26 00:01:27 41,5 -3,74
28,00 00:51:25 00:01:30 00:01:31 39,7 -5,91
29,00 00:52:50 00:01:24 00:01:25 42,5 -8,42
30,00 00:54:24 00:01:34 00:01:35 38,0 -9,56
31,00 00:56:19 00:01:54 00:01:55 31,3 3,89
32,00 00:58:15 00:01:55 00:01:56 31,1 9,89
33,00 01:00:12 00:01:56 00:01:57 30,8 0,52
34,00 01:02:08 00:01:56 00:01:56 31,0 -0,27
35,00 01:04:04 00:01:55 00:01:56 31,1 4,19
36,00 01:05:53 00:01:49 00:01:50 32,8 1,58
37,00 01:07:57 00:02:03 00:02:04 29,1 9,43
38,00 01:09:57 00:01:59 00:02:00 30,1 5,42
39,00 01:11:28 00:01:30 00:01:31 39,7 -6,41
40,00 01:12:55 00:01:27 00:01:27 41,4 -1,59
41,00 01:14:22 00:01:27 00:01:28 41,0 -6,18
42,00 01:15:44 00:01:21 00:01:22 44,1 -6,25
43,00 01:17:08 00:01:23 00:01:24 43,0 -8,73
44,00 01:18:55 00:01:47 00:01:47 33,6 -2,76
45,00 01:20:53 00:01:57 00:01:58 30,6 5,28
46,00 01:22:45 00:01:52 00:01:52 32,1 6,93
47,00 01:24:44 00:01:59 00:01:59 30,2 -1,60
48,00 01:26:38 00:01:54 00:01:54 31,6 3,46
49,00 01:28:32 00:01:54 00:01:54 31,5 0,04
50,00 01:30:24 00:01:51 00:01:51 32,4 10,01
51,00 01:32:25 00:02:01 00:02:01 29,7 10,00
52,00 01:34:06 00:01:41 00:01:41 35,5 -6,93
53,00 01:35:34 00:01:27 00:01:27 41,2 -2,13
54,00 01:37:01 00:01:27 00:01:28 41,0 -4,76
55,00 01:38:30 00:01:28 00:01:29 40,5 -5,76
56,00 01:39:56 00:01:25 00:01:26 42,0 -8,84
57,00 01:41:28 00:01:32 00:01:32 39,1 -7,66
58,00 01:43:00 00:01:32 00:01:32 39,0 -3,71
59,00 01:44:46 00:01:46 00:01:46 34,0 6,93
59,27 01:45:21 00:00:34 00:02:07 28,3 2,66